createdAt,value
2022-12-20T00:00:55.463Z,19.92
2022-12-20T00:01:57.886Z,22.48
2022-12-20T00:03:00.384Z,20.50
2022-12-20T00:04:07.900Z,23.20
2022-12-20T00:05:10.236Z,21.10
2022-12-20T00:06:13.237Z,22.52
2022-12-20T00:07:15.573Z,20.42
2022-12-20T00:08:17.891Z,17.48
2022-12-20T00:09:20.275Z,19.85
2022-12-20T00:10:22.545Z,15.55
2022-12-20T00:11:26.384Z,22.27
2022-12-20T00:12:28.704Z,20.33
2022-12-20T00:13:31.948Z,17.08
2022-12-20T00:14:34.257Z,14.88
2022-12-20T00:15:36.682Z,14.85
2022-12-20T00:16:39.068Z,16.45
2022-12-20T00:17:41.512Z,17.75
2022-12-20T00:18:44.952Z,20.48
2022-12-20T00:19:47.315Z,20.55
2022-12-20T00:20:57.430Z,16.52
2022-12-20T00:21:59.730Z,18.00
2022-12-20T00:23:02.721Z,14.48
2022-12-20T00:24:06.305Z,15.93
2022-12-20T00:25:08.848Z,17.52
2022-12-20T00:26:13.341Z,18.25
2022-12-20T00:27:15.631Z,14.43
2022-12-20T00:28:18.590Z,17.25
2022-12-20T00:29:21.091Z,15.85
2022-12-20T00:30:23.515Z,15.77
2022-12-20T00:31:27.899Z,15.70
2022-12-20T00:32:30.462Z,15.60
2022-12-20T00:33:37.222Z,16.23
2022-12-20T00:34:39.581Z,15.32
2022-12-20T00:35:44.734Z,15.23
2022-12-20T00:36:47.247Z,17.65
2022-12-20T00:37:49.539Z,16.42
2022-12-20T00:38:54.581Z,16.83
2022-12-20T00:39:57.498Z,14.25
2022-12-20T00:41:08.286Z,17.08
2022-12-20T00:42:12.123Z,15.35
2022-12-20T00:43:14.491Z,13.75
2022-12-20T00:44:17.014Z,14.65
2022-12-20T00:45:19.329Z,13.45
2022-12-20T00:46:23.363Z,14.68
2022-12-20T00:47:25.780Z,13.60
2022-12-20T00:48:29.290Z,12.95
2022-12-20T00:49:31.895Z,13.07
2022-12-20T00:50:34.331Z,13.15
2022-12-20T00:51:36.622Z,12.95
2022-12-20T00:52:38.984Z,15.00
2022-12-20T00:53:42.220Z,15.27
2022-12-20T00:54:44.497Z,15.38
2022-12-20T00:55:47.168Z,14.15
2022-12-20T00:56:49.543Z,13.93
2022-12-20T00:57:51.888Z,12.30
2022-12-20T00:58:54.433Z,15.00
2022-12-20T00:59:56.755Z,12.77
2022-12-20T01:00:59.264Z,12.65
2022-12-20T01:02:02.553Z,13.30
2022-12-20T01:03:06.327Z,12.48
2022-12-20T01:04:08.744Z,11.73
2022-12-20T01:05:11.099Z,11.02
2022-12-20T01:06:13.354Z,14.30
2022-12-20T01:07:16.456Z,17.30
2022-12-20T01:08:19.263Z,14.52
2022-12-20T01:09:21.535Z,15.15
2022-12-20T01:10:23.850Z,14.68
2022-12-20T01:11:32.063Z,12.90
2022-12-20T01:12:34.396Z,10.25
2022-12-20T01:13:40.439Z,15.43
2022-12-20T01:14:42.795Z,13.40
2022-12-20T01:15:45.850Z,12.48
2022-12-20T01:16:48.382Z,10.65
2022-12-20T01:17:51.457Z,11.27
2022-12-20T01:18:54.477Z,14.50
2022-12-20T01:19:57.320Z,9.38
2022-12-20T01:21:08.391Z,13.85
2022-12-20T01:22:10.999Z,9.70
2022-12-20T01:23:13.385Z,11.05
2022-12-20T01:24:17.914Z,10.40
2022-12-20T01:25:20.282Z,12.55
2022-12-20T01:26:25.665Z,12.48
2022-12-20T01:27:28.866Z,12.18
2022-12-20T01:28:32.396Z,10.18
2022-12-20T01:29:34.743Z,9.38
2022-12-20T01:30:40.765Z,9.73
2022-12-20T01:31:43.651Z,12.35
2022-12-20T01:32:46.051Z,12.10
2022-12-20T01:33:50.080Z,10.60
2022-12-20T01:34:54.160Z,11.95
2022-12-20T01:36:05.099Z,11.38
2022-12-20T01:37:07.605Z,10.93
2022-12-20T01:38:09.885Z,9.98
2022-12-20T01:39:15.352Z,10.57
2022-12-20T01:40:17.846Z,13.77
2022-12-20T01:41:22.175Z,10.15
2022-12-20T01:42:24.490Z,9.73
2022-12-20T01:43:52.272Z,12.15
2022-12-20T01:44:58.531Z,11.75
2022-12-20T01:46:01.538Z,10.10
2022-12-20T01:47:03.965Z,10.82
2022-12-20T01:48:07.333Z,14.57
2022-12-20T01:49:16.207Z,10.15
2022-12-20T01:50:19.019Z,9.98
2022-12-20T01:51:23.562Z,9.77
2022-12-20T01:52:34.453Z,35.20
2022-12-20T01:53:37.456Z,21.90
2022-12-20T01:55:00.609Z,33.35
2022-12-20T01:56:07.268Z,36.22
2022-12-20T01:57:19.636Z,32.58
2022-12-20T01:58:22.713Z,30.17
2022-12-20T01:59:26.150Z,32.40
2022-12-20T02:00:29.581Z,29.08
2022-12-20T02:01:32.186Z,28.98
2022-12-20T02:02:35.584Z,28.35
2022-12-20T02:03:38.076Z,32.30
2022-12-20T02:04:41.092Z,26.40
2022-12-20T02:05:45.963Z,24.58
2022-12-20T02:06:48.232Z,22.40
2022-12-20T02:07:53.997Z,37.85
2022-12-20T02:09:00.504Z,40.25
2022-12-20T02:10:05.911Z,30.10
2022-12-20T02:11:33.458Z,23.33
2022-12-20T02:12:46.412Z,18.88
2022-12-20T02:14:08.449Z,56.42
2022-12-20T02:15:25.527Z,46.83
2022-12-20T02:16:33.170Z,37.53
2022-12-20T02:18:21.211Z,28.63
2022-12-20T02:19:51.539Z,31.15
2022-12-20T02:21:14.729Z,25.95
2022-12-20T02:22:34.805Z,27.83
2022-12-20T02:23:57.817Z,28.85
2022-12-20T02:25:06.214Z,26.90
2022-12-20T02:26:24.690Z,21.73
2022-12-20T02:27:45.875Z,24.63
2022-12-20T02:28:57.617Z,25.98
2022-12-20T02:31:20.839Z,27.13
2022-12-20T02:32:36.760Z,27.13
2022-12-20T02:33:43.571Z,21.35
2022-12-20T02:34:46.649Z,18.58
2022-12-20T02:35:48.990Z,21.98
2022-12-20T02:36:52.065Z,20.48
2022-12-20T02:37:58.517Z,23.90
2022-12-20T02:39:00.917Z,20.15
2022-12-20T02:40:05.214Z,17.25
2022-12-20T02:41:32.166Z,19.30
2022-12-20T02:42:34.947Z,20.38
2022-12-20T02:43:57.872Z,23.33
2022-12-20T02:45:17.678Z,19.25
2022-12-20T02:46:23.904Z,18.05
2022-12-20T02:47:49.427Z,22.83
2022-12-20T02:48:54.114Z,20.50
2022-12-20T02:49:57.229Z,209.50
2022-12-20T02:51:01.471Z,96.15
2022-12-20T02:52:05.326Z,273.85
2022-12-20T02:53:09.167Z,251.07
2022-12-20T02:54:14.902Z,246.98
2022-12-20T02:55:18.432Z,173.65
2022-12-20T02:56:30.541Z,127.97
2022-12-20T02:57:38.273Z,114.28
2022-12-20T02:58:52.469Z,99.75
2022-12-20T03:00:02.304Z,78.50
2022-12-20T03:01:14.243Z,77.97
2022-12-20T03:02:17.608Z,72.05
2022-12-20T03:03:24.400Z,59.13
2022-12-20T03:04:31.118Z,57.60
2022-12-20T03:05:38.413Z,57.45
2022-12-20T03:07:01.694Z,53.10
2022-12-20T03:08:04.251Z,50.17
2022-12-20T03:09:06.627Z,51.90
2022-12-20T03:10:11.613Z,44.80
2022-12-20T03:11:15.092Z,46.47
2022-12-20T03:12:17.543Z,50.13
2022-12-20T03:13:21.011Z,46.45
2022-12-20T03:14:30.588Z,45.00
2022-12-20T03:15:35.117Z,42.13
2022-12-20T03:16:38.911Z,41.38
2022-12-20T03:17:42.673Z,41.42
2022-12-20T03:18:46.041Z,44.63
2022-12-20T03:19:48.506Z,38.92
2022-12-20T03:20:50.903Z,38.08
2022-12-20T03:21:53.426Z,38.45
2022-12-20T03:22:55.808Z,39.08
2022-12-20T03:23:58.176Z,38.03
2022-12-20T03:25:01.180Z,36.70
2022-12-20T03:26:05.774Z,36.72
2022-12-20T03:27:13.237Z,31.60
2022-12-20T03:28:15.961Z,37.28
2022-12-20T03:29:18.670Z,34.15
2022-12-20T03:30:21.113Z,34.38
2022-12-20T03:31:23.505Z,32.28
2022-12-20T03:32:29.227Z,35.67
2022-12-20T03:33:31.710Z,35.50
2022-12-20T03:34:37.103Z,31.35
2022-12-20T03:35:39.899Z,29.95
2022-12-20T03:36:42.365Z,32.25
2022-12-20T03:37:44.975Z,34.03
2022-12-20T03:38:47.539Z,31.38
2022-12-20T03:39:49.958Z,35.58
2022-12-20T03:40:52.464Z,33.78
2022-12-20T03:41:57.306Z,34.95
2022-12-20T03:42:59.583Z,36.88
2022-12-20T03:44:02.462Z,26.15
2022-12-20T03:45:05.527Z,125.70
2022-12-20T03:46:08.866Z,122.15
2022-12-20T03:47:13.734Z,82.63
2022-12-20T03:48:16.135Z,62.80
2022-12-20T03:49:18.623Z,60.60
2022-12-20T03:50:24.909Z,60.03
2022-12-20T03:51:27.217Z,53.33
2022-12-20T03:52:29.736Z,51.35
2022-12-20T03:53:32.066Z,48.58
2022-12-20T03:54:34.580Z,44.47
2022-12-20T03:55:45.746Z,43.97
2022-12-20T03:56:48.988Z,42.92
2022-12-20T03:57:51.409Z,40.03
2022-12-20T03:59:04.305Z,43.22
2022-12-20T04:00:07.782Z,38.28
2022-12-20T04:01:28.410Z,43.42
2022-12-20T04:02:31.319Z,40.35
2022-12-20T04:03:33.824Z,39.47
2022-12-20T04:04:36.238Z,38.55
2022-12-20T04:05:38.609Z,38.10
2022-12-20T04:06:42.421Z,39.78
2022-12-20T04:07:45.299Z,38.35
2022-12-20T04:08:48.605Z,35.85
2022-12-20T04:09:58.278Z,39.50
2022-12-20T04:11:19.145Z,35.72
2022-12-20T04:12:40.215Z,44.65
2022-12-20T04:13:50.409Z,42.92
2022-12-20T04:14:52.826Z,38.13
2022-12-20T04:15:59.960Z,39.38
2022-12-20T04:17:05.585Z,37.40
2022-12-20T04:18:08.599Z,38.50
2022-12-20T04:19:12.253Z,40.47
2022-12-20T04:20:21.047Z,39.80
2022-12-20T04:21:32.846Z,43.22
2022-12-20T04:22:35.230Z,39.03
2022-12-20T04:23:41.995Z,41.58
2022-12-20T04:24:44.744Z,37.85
2022-12-20T04:26:09.047Z,40.95
2022-12-20T04:27:11.629Z,37.92
2022-12-20T04:28:14.879Z,37.33
2022-12-20T04:29:17.214Z,39.50
2022-12-20T04:30:21.032Z,35.85
2022-12-20T04:31:24.615Z,35.75
2022-12-20T04:32:28.509Z,38.78
2022-12-20T04:33:31.451Z,36.92
2022-12-20T04:34:34.450Z,37.40
2022-12-20T04:35:37.618Z,38.33
2022-12-20T04:36:40.160Z,39.63
2022-12-20T04:37:47.614Z,36.40
2022-12-20T04:38:50.558Z,38.75
2022-12-20T04:39:53.098Z,35.72
2022-12-20T04:40:59.181Z,33.58
2022-12-20T04:42:04.718Z,37.50
2022-12-20T04:43:07.035Z,35.95
2022-12-20T04:44:10.380Z,36.20
2022-12-20T04:45:13.606Z,36.38
2022-12-20T04:46:16.406Z,35.45
2022-12-20T04:47:19.162Z,39.13
2022-12-20T04:48:55.280Z,31.75
2022-12-20T04:49:44.624Z,33.92
2022-12-20T04:50:50.936Z,36.65
2022-12-20T04:51:53.359Z,34.55
2022-12-20T04:53:14.924Z,30.67
2022-12-20T04:54:17.922Z,37.33
2022-12-20T04:55:38.308Z,35.95
2022-12-20T04:56:40.639Z,33.38
2022-12-20T04:57:46.044Z,35.97
2022-12-20T04:58:50.328Z,33.65
2022-12-20T04:59:52.863Z,34.40
2022-12-20T05:00:55.438Z,36.80
2022-12-20T05:02:01.795Z,36.45
2022-12-20T05:03:27.410Z,36.95
2022-12-20T05:04:37.039Z,36.17
2022-12-20T05:05:40.163Z,33.10
2022-12-20T05:06:42.618Z,30.63
2022-12-20T05:07:45.587Z,31.80
2022-12-20T05:08:48.217Z,35.60
2022-12-20T05:09:50.653Z,30.33
2022-12-20T05:10:53.063Z,24.63
2022-12-20T05:11:56.671Z,24.70
2022-12-20T05:13:01.784Z,34.05
2022-12-20T05:14:13.345Z,31.27
2022-12-20T05:15:15.781Z,33.70
2022-12-20T05:16:18.949Z,30.48
2022-12-20T05:17:21.891Z,27.75
2022-12-20T05:18:26.053Z,33.42
2022-12-20T05:19:33.524Z,35.47
2022-12-20T05:20:36.252Z,35.80
2022-12-20T05:22:08.189Z,34.03
2022-12-20T05:23:32.094Z,35.95
2022-12-20T05:25:03.471Z,33.47
2022-12-20T05:26:18.991Z,32.25
2022-12-20T05:27:22.710Z,38.30
2022-12-20T05:28:25.652Z,33.42
2022-12-20T05:29:27.951Z,33.90
2022-12-20T05:30:31.695Z,28.00
2022-12-20T05:31:34.286Z,29.42
2022-12-20T05:32:37.531Z,28.08
2022-12-20T05:33:39.930Z,19.15
2022-12-20T05:34:43.837Z,19.20
2022-12-20T05:35:46.331Z,30.38
2022-12-20T05:36:50.562Z,29.95
2022-12-20T05:37:53.811Z,23.70
2022-12-20T05:39:03.576Z,22.75
2022-12-20T05:40:08.875Z,30.63
2022-12-20T05:41:11.586Z,26.77
2022-12-20T05:42:14.262Z,26.88
2022-12-20T05:43:17.510Z,25.65
2022-12-20T05:44:22.202Z,27.13
2022-12-20T05:45:27.255Z,26.63
2022-12-20T05:46:36.207Z,21.85
2022-12-20T05:47:43.541Z,26.10
2022-12-20T05:48:47.589Z,30.35
2022-12-20T05:49:50.047Z,27.52
2022-12-20T05:50:52.797Z,26.45
2022-12-20T05:52:05.948Z,26.95
2022-12-20T05:53:14.573Z,26.58
2022-12-20T05:54:22.203Z,26.20
2022-12-20T05:55:32.312Z,26.42
2022-12-20T05:56:35.099Z,27.02
2022-12-20T05:57:37.486Z,26.80
2022-12-20T05:58:40.494Z,29.10
2022-12-20T05:59:44.832Z,25.10
2022-12-20T06:00:52.807Z,28.55
2022-12-20T06:01:55.848Z,27.65
2022-12-20T06:02:59.737Z,27.05
2022-12-20T06:04:02.590Z,28.90
2022-12-20T06:05:05.849Z,29.52
2022-12-20T06:06:14.175Z,25.02
2022-12-20T06:07:19.487Z,25.67
2022-12-20T06:08:25.153Z,22.48
2022-12-20T06:09:30.059Z,23.45
2022-12-20T06:10:39.286Z,23.73
2022-12-20T06:11:42.519Z,23.73
2022-12-20T06:12:47.454Z,29.25
2022-12-20T06:13:50.652Z,30.95
2022-12-20T06:14:53.371Z,27.50
2022-12-20T06:15:55.917Z,25.23
2022-12-20T06:16:58.588Z,23.33
2022-12-20T06:18:00.918Z,26.05
2022-12-20T06:19:03.214Z,53.00
2022-12-20T06:20:06.383Z,37.22
2022-12-20T06:21:08.678Z,32.03
2022-12-20T06:22:11.293Z,29.75
2022-12-20T06:23:18.157Z,25.02
2022-12-20T06:24:30.064Z,25.05
2022-12-20T06:25:32.961Z,19.88
2022-12-20T06:26:38.364Z,25.35
2022-12-20T06:27:42.776Z,20.27
2022-12-20T06:28:57.015Z,22.65
2022-12-20T06:30:14.000Z,22.80
2022-12-20T06:31:29.200Z,24.13
2022-12-20T06:32:31.938Z,24.92
2022-12-20T06:33:34.510Z,24.63
2022-12-20T06:34:37.311Z,27.17
2022-12-20T06:35:40.431Z,25.52
2022-12-20T06:36:42.956Z,24.42
2022-12-20T06:37:51.666Z,22.92
2022-12-20T06:38:54.269Z,28.02
2022-12-20T06:39:56.711Z,21.15
2022-12-20T06:40:59.122Z,26.65
2022-12-20T06:42:01.459Z,23.55
2022-12-20T06:43:03.944Z,26.77
2022-12-20T06:44:06.595Z,22.73
2022-12-20T06:45:09.544Z,23.05
2022-12-20T06:46:12.136Z,21.52
2022-12-20T06:47:14.619Z,25.73
2022-12-20T06:48:17.020Z,24.33
2022-12-20T06:49:19.844Z,24.35
2022-12-20T06:50:23.604Z,26.08
2022-12-20T06:51:26.265Z,23.70
2022-12-20T06:52:29.862Z,23.63
2022-12-20T06:53:32.237Z,22.15
2022-12-20T06:54:35.467Z,24.23
2022-12-20T06:55:39.446Z,23.48
2022-12-20T06:56:41.975Z,24.88
2022-12-20T06:57:46.728Z,24.52
2022-12-20T06:58:51.051Z,21.85
2022-12-20T06:59:53.499Z,22.75
2022-12-20T07:00:55.921Z,20.40
2022-12-20T07:01:58.800Z,22.70
2022-12-20T07:03:01.643Z,19.38
2022-12-20T07:04:04.403Z,26.40
2022-12-20T07:05:07.079Z,23.80
2022-12-20T07:06:09.412Z,19.98
2022-12-20T07:07:13.438Z,19.33
2022-12-20T07:08:15.732Z,23.30
2022-12-20T07:09:18.290Z,26.30
2022-12-20T07:10:20.821Z,20.08
2022-12-20T07:11:23.192Z,22.27
2022-12-20T07:12:25.532Z,26.15
2022-12-20T07:13:28.158Z,25.70
2022-12-20T07:14:30.543Z,21.60
2022-12-20T07:15:32.957Z,33.88
2022-12-20T07:16:36.301Z,30.02
2022-12-20T07:17:39.309Z,37.08
2022-12-20T07:18:41.632Z,23.52
2022-12-20T07:19:50.291Z,26.92
2022-12-20T07:20:53.428Z,20.33
2022-12-20T07:21:56.167Z,19.35
2022-12-20T07:22:58.690Z,20.90
2022-12-20T07:24:01.386Z,20.08
2022-12-20T07:25:04.149Z,20.77
2022-12-20T07:26:06.533Z,20.67
2022-12-20T07:27:11.125Z,19.92
2022-12-20T07:28:13.362Z,20.75
2022-12-20T07:29:16.269Z,20.30
2022-12-20T07:30:20.267Z,24.00
2022-12-20T07:31:22.869Z,21.75
2022-12-20T07:32:25.484Z,21.67
2022-12-20T07:33:28.884Z,23.50
2022-12-20T07:34:31.253Z,21.45
2022-12-20T07:35:33.606Z,20.00
2022-12-20T07:36:36.124Z,18.92
2022-12-20T07:37:39.410Z,19.00
2022-12-20T07:38:42.408Z,22.85
2022-12-20T07:39:44.971Z,22.05
2022-12-20T07:40:47.430Z,21.73
2022-12-20T07:41:53.221Z,19.65
2022-12-20T07:42:58.049Z,19.63
2022-12-20T07:44:00.619Z,17.05
2022-12-20T07:45:02.941Z,22.67
2022-12-20T07:46:06.989Z,19.77
2022-12-20T07:47:10.023Z,19.92
2022-12-20T07:48:16.296Z,18.80
2022-12-20T07:50:28.358Z,17.10
2022-12-20T07:51:40.587Z,19.27
2022-12-20T07:52:45.846Z,20.02
2022-12-20T07:53:54.495Z,23.38
2022-12-20T07:55:03.137Z,19.08
2022-12-20T07:56:08.039Z,16.25
2022-12-20T07:57:15.666Z,27.23
2022-12-20T07:58:19.138Z,24.45
2022-12-20T07:59:27.200Z,20.58
2022-12-20T08:00:29.947Z,17.27
2022-12-20T08:01:32.654Z,20.63
2022-12-20T08:02:44.314Z,19.63
2022-12-20T08:03:51.130Z,17.70
2022-12-20T08:04:55.367Z,16.63
2022-12-20T08:06:03.779Z,17.98
2022-12-20T08:07:08.030Z,16.33
2022-12-20T08:08:10.572Z,17.92
2022-12-20T08:09:14.400Z,16.65
2022-12-20T08:10:19.506Z,17.20
2022-12-20T08:11:23.585Z,20.63
2022-12-20T08:12:27.783Z,17.20
2022-12-20T08:13:31.500Z,19.55
2022-12-20T08:14:33.958Z,18.02
2022-12-20T08:15:36.767Z,17.65
2022-12-20T08:16:39.243Z,18.02
2022-12-20T08:17:41.672Z,19.17
2022-12-20T08:18:44.661Z,25.58
2022-12-20T08:19:47.588Z,18.48
2022-12-20T08:20:50.158Z,27.65
2022-12-20T08:21:52.653Z,27.30
2022-12-20T08:22:55.054Z,20.63
2022-12-20T08:23:57.473Z,23.40
2022-12-20T08:24:59.878Z,16.58
2022-12-20T08:26:02.528Z,20.77
2022-12-20T08:27:04.843Z,20.92
2022-12-20T08:28:07.567Z,19.25
2022-12-20T08:29:10.413Z,42.63
2022-12-20T08:30:13.572Z,26.73
2022-12-20T08:31:16.317Z,22.65
2022-12-20T08:32:18.715Z,62.42
2022-12-20T08:33:21.128Z,47.70
2022-12-20T08:34:23.489Z,42.35
2022-12-20T08:35:25.974Z,27.30
2022-12-20T08:36:28.307Z,29.75
2022-12-20T08:37:30.745Z,21.48
2022-12-20T08:38:34.187Z,23.10
2022-12-20T08:39:37.606Z,22.52
2022-12-20T08:40:39.959Z,21.00
2022-12-20T08:41:42.341Z,21.38
2022-12-20T08:42:44.902Z,21.85
2022-12-20T08:43:47.681Z,17.88
2022-12-20T08:44:50.174Z,16.27
2022-12-20T08:45:54.659Z,20.38
2022-12-20T08:46:57.013Z,18.30
2022-12-20T08:47:59.634Z,16.33
2022-12-20T08:49:02.004Z,16.80
2022-12-20T08:50:04.814Z,17.58
2022-12-20T08:51:09.893Z,13.93
2022-12-20T08:52:12.191Z,14.88
2022-12-20T08:53:14.577Z,17.88
2022-12-20T08:54:17.549Z,18.30
2022-12-20T08:55:23.378Z,17.00
2022-12-20T08:56:30.024Z,20.10
2022-12-20T08:57:32.627Z,16.73
2022-12-20T08:58:36.049Z,20.90
2022-12-20T08:59:38.372Z,16.63
2022-12-20T09:00:40.806Z,19.80
2022-12-20T09:01:43.319Z,15.77
2022-12-20T09:02:47.333Z,14.00
2022-12-20T09:03:49.944Z,11.07
2022-12-20T09:04:52.386Z,17.92
2022-12-20T09:05:55.411Z,21.30
2022-12-20T09:06:57.958Z,15.20
2022-12-20T09:08:00.334Z,14.07
2022-12-20T09:09:03.470Z,15.95
2022-12-20T09:10:06.727Z,11.85
2022-12-20T09:11:15.065Z,11.15
2022-12-20T09:12:17.492Z,10.77
2022-12-20T09:13:21.710Z,11.18
2022-12-20T09:14:24.591Z,17.25
2022-12-20T09:15:28.037Z,18.85
2022-12-20T09:16:32.545Z,52.42
2022-12-20T09:17:35.013Z,119.55
2022-12-20T09:18:37.378Z,88.25
2022-12-20T09:19:39.926Z,60.70
2022-12-20T09:20:44.867Z,36.30
2022-12-20T09:21:47.236Z,26.17
2022-12-20T09:22:49.789Z,23.58
2022-12-20T09:23:54.573Z,20.55
2022-12-20T09:24:57.206Z,18.75
2022-12-20T09:26:16.707Z,17.58
2022-12-20T09:27:19.100Z,18.75
2022-12-20T09:28:22.360Z,13.68
2022-12-20T09:29:29.540Z,17.58
2022-12-20T09:30:34.686Z,13.25
2022-12-20T09:31:37.444Z,13.68
2022-12-20T09:32:40.014Z,15.82
2022-12-20T09:33:42.987Z,11.57
2022-12-20T09:34:45.375Z,11.48
2022-12-20T09:35:48.022Z,14.40
2022-12-20T09:36:50.384Z,11.63
2022-12-20T09:37:52.887Z,11.63
2022-12-20T09:38:55.911Z,10.98
2022-12-20T09:39:58.722Z,16.60
2022-12-20T09:41:07.015Z,15.15
2022-12-20T09:42:09.810Z,13.13
2022-12-20T09:43:13.771Z,15.30
2022-12-20T09:44:35.978Z,18.27
2022-12-20T09:45:38.972Z,16.38
2022-12-20T09:46:42.587Z,13.63
2022-12-20T09:47:46.305Z,19.65
2022-12-20T09:48:49.091Z,15.10
2022-12-20T09:49:54.941Z,11.95
2022-12-20T09:50:57.272Z,11.15
2022-12-20T09:52:05.610Z,14.60
2022-12-20T09:53:30.856Z,14.50
2022-12-20T09:54:47.760Z,19.48
2022-12-20T09:55:56.393Z,15.05
2022-12-20T09:57:09.539Z,17.63
2022-12-20T09:58:44.546Z,15.25
2022-12-20T09:59:49.834Z,26.90
2022-12-20T10:00:54.616Z,14.93
2022-12-20T10:02:08.048Z,12.30
2022-12-20T10:03:25.333Z,15.68
2022-12-20T10:04:31.225Z,48.47
2022-12-20T10:05:50.017Z,121.85
2022-12-20T10:07:32.473Z,66.40
2022-12-20T10:10:20.648Z,47.60
2022-12-20T10:11:50.250Z,32.83
2022-12-20T10:13:10.890Z,25.08
2022-12-20T10:14:53.688Z,24.95
2022-12-20T10:16:22.249Z,27.58
2022-12-20T10:17:43.251Z,20.17
2022-12-20T10:19:10.463Z,16.88
2022-12-20T10:20:50.343Z,19.05
2022-12-20T10:22:21.111Z,19.13
2022-12-20T10:23:33.616Z,14.63
2022-12-20T10:24:37.134Z,12.75
2022-12-20T10:25:41.619Z,17.42
2022-12-20T10:26:45.612Z,14.38
2022-12-20T10:27:49.748Z,14.73
2022-12-20T10:28:54.422Z,16.90
2022-12-20T10:29:57.273Z,14.60
2022-12-20T10:31:06.406Z,16.83
2022-12-20T10:32:18.659Z,15.60
2022-12-20T10:33:23.416Z,19.05
2022-12-20T10:34:27.848Z,28.15
2022-12-20T10:35:40.506Z,18.48
2022-12-20T10:36:42.859Z,12.18
2022-12-20T10:38:08.904Z,14.15
2022-12-20T10:39:11.895Z,12.18
2022-12-20T10:41:01.521Z,12.25
2022-12-20T10:41:53.312Z,10.20
2022-12-20T10:42:56.144Z,12.65
2022-12-20T10:44:04.357Z,12.10
2022-12-20T10:45:15.624Z,12.63
2022-12-20T10:46:18.124Z,11.25
2022-12-20T10:47:35.451Z,12.50
2022-12-20T10:48:40.981Z,13.35
2022-12-20T10:49:43.313Z,13.45
2022-12-20T10:50:56.393Z,20.98
2022-12-20T10:52:07.770Z,17.95
2022-12-20T10:54:38.169Z,15.23
2022-12-20T10:55:42.203Z,13.23
2022-12-20T10:56:59.099Z,14.50
2022-12-20T10:58:12.608Z,12.27
2022-12-20T10:59:17.801Z,12.85
2022-12-20T11:00:30.946Z,61.78
2022-12-20T11:01:37.457Z,66.10
2022-12-20T11:02:42.769Z,65.63
2022-12-20T11:03:55.692Z,55.42
2022-12-20T11:05:13.101Z,68.90
2022-12-20T11:06:17.455Z,40.58
2022-12-20T11:07:26.795Z,33.45
2022-12-20T11:08:40.939Z,23.45
2022-12-20T11:09:55.301Z,53.30
2022-12-20T11:11:19.483Z,52.85
2022-12-20T11:12:21.922Z,41.25
2022-12-20T11:13:26.800Z,35.70
2022-12-20T11:14:38.408Z,33.85
2022-12-20T11:15:50.369Z,23.00
2022-12-20T11:16:55.168Z,21.23
2022-12-20T11:18:09.212Z,17.40
2022-12-20T11:19:35.046Z,18.27
2022-12-20T11:20:52.720Z,17.08
2022-12-20T11:22:41.568Z,15.48
2022-12-20T11:24:09.287Z,17.58
2022-12-20T11:25:11.669Z,15.48
2022-12-20T11:26:41.444Z,19.45
2022-12-20T11:28:08.020Z,17.45
2022-12-20T11:29:38.113Z,17.83
2022-12-20T11:31:04.512Z,15.95
2022-12-20T11:32:36.923Z,16.33
2022-12-20T11:34:14.494Z,16.40
2022-12-20T11:35:30.765Z,17.27
2022-12-20T11:37:07.161Z,18.05
2022-12-20T11:38:23.751Z,16.42
2022-12-20T11:39:37.413Z,25.90
2022-12-20T11:40:51.404Z,17.60
2022-12-20T11:42:11.543Z,16.08
2022-12-20T11:43:25.685Z,17.92
2022-12-20T11:45:03.745Z,16.25
2022-12-20T11:46:20.850Z,35.83
2022-12-20T11:47:40.616Z,25.27
2022-12-20T11:49:08.637Z,42.60
2022-12-20T11:50:29.608Z,40.13
2022-12-20T11:52:10.559Z,30.05
2022-12-20T11:53:31.909Z,31.20
2022-12-20T11:54:58.557Z,25.27
2022-12-20T11:56:08.779Z,19.70
2022-12-20T11:57:23.320Z,18.10
2022-12-20T11:58:46.190Z,21.85
2022-12-20T11:59:53.255Z,17.73
2022-12-20T12:01:01.950Z,17.95
2022-12-20T12:02:26.009Z,16.92
2022-12-20T12:03:35.928Z,17.88
2022-12-20T12:04:53.551Z,18.98
2022-12-20T12:06:19.753Z,17.35
2022-12-20T12:07:33.465Z,15.38
2022-12-20T12:08:39.154Z,17.63
2022-12-20T12:10:05.943Z,15.73
2022-12-20T12:11:39.857Z,15.77
2022-12-20T12:12:45.249Z,17.02
2022-12-20T12:13:48.892Z,16.10
2022-12-20T12:14:59.959Z,17.48
2022-12-20T12:16:20.359Z,17.98
2022-12-20T12:18:00.524Z,17.27
2022-12-20T12:19:03.924Z,21.45
2022-12-20T12:20:35.911Z,17.33
2022-12-20T12:22:48.948Z,19.88
2022-12-20T12:23:59.587Z,18.77
2022-12-20T12:25:06.348Z,18.00
2022-12-20T12:26:35.983Z,15.02
2022-12-20T12:27:39.098Z,16.05
2022-12-20T12:28:41.662Z,18.27
2022-12-20T12:29:44.291Z,18.15
2022-12-20T12:31:00.304Z,15.25
2022-12-20T12:32:17.052Z,54.40
2022-12-20T12:33:38.105Z,65.13
2022-12-20T12:36:30.669Z,29.83
2022-12-20T12:38:13.509Z,29.90
2022-12-20T12:39:42.383Z,28.92
2022-12-20T12:41:12.151Z,22.58
2022-12-20T12:42:30.349Z,18.23
2022-12-20T12:43:44.229Z,16.75
2022-12-20T12:44:59.613Z,18.25
2022-12-20T12:46:14.025Z,14.55
2022-12-20T12:47:23.535Z,18.45
2022-12-20T12:48:42.027Z,14.85
2022-12-20T12:49:50.206Z,13.15
2022-12-20T12:50:56.970Z,13.35
2022-12-20T12:52:02.884Z,14.35
2022-12-20T12:53:28.183Z,11.93
2022-12-20T12:54:38.280Z,12.48
2022-12-20T12:55:45.491Z,14.35
2022-12-20T12:56:49.231Z,15.60
2022-12-20T12:57:58.574Z,14.23
2022-12-20T12:59:06.764Z,14.70
2022-12-20T13:00:49.356Z,17.35
2022-12-20T13:01:52.154Z,13.65
2022-12-20T13:02:54.971Z,12.63
2022-12-20T13:04:00.486Z,12.80
2022-12-20T13:05:12.699Z,12.60
2022-12-20T13:06:25.147Z,15.32
2022-12-20T13:07:33.551Z,13.77
2022-12-20T13:09:09.410Z,11.60
2022-12-20T13:10:14.642Z,12.70
2022-12-20T13:11:31.440Z,14.10
2022-12-20T13:12:36.630Z,13.25
2022-12-20T13:13:39.035Z,15.57
2022-12-20T13:14:41.364Z,13.40
2022-12-20T13:15:43.976Z,14.45
2022-12-20T13:18:13.546Z,12.77
2022-12-20T13:19:25.018Z,11.30
2022-12-20T13:21:37.157Z,11.95
2022-12-20T13:22:39.564Z,12.52
2022-12-20T13:23:42.061Z,13.30
2022-12-20T13:25:00.025Z,12.80
2022-12-20T13:26:42.327Z,9.38
2022-12-20T13:28:47.486Z,11.52
2022-12-20T13:30:26.462Z,15.50
2022-12-20T13:31:33.645Z,13.30
2022-12-20T13:32:48.157Z,11.25
2022-12-20T13:33:54.111Z,13.57
2022-12-20T13:34:58.156Z,13.20
2022-12-20T13:36:11.490Z,11.93
2022-12-20T13:38:06.143Z,11.70
2022-12-20T13:39:21.223Z,13.00
2022-12-20T13:40:34.791Z,10.50
2022-12-20T13:41:46.867Z,12.98
2022-12-20T13:42:53.725Z,12.75
2022-12-20T13:44:00.100Z,11.75
2022-12-20T13:45:06.588Z,11.65
2022-12-20T13:46:11.782Z,13.30
2022-12-20T13:47:32.830Z,14.15
2022-12-20T13:48:37.941Z,14.68
2022-12-20T13:49:42.480Z,11.30
2022-12-20T13:50:52.775Z,247.43
2022-12-20T13:52:18.077Z,262.25
2022-12-20T13:53:23.833Z,141.57
2022-12-20T13:54:27.508Z,200.10
2022-12-20T13:55:34.962Z,149.05
2022-12-20T13:56:49.380Z,136.68
2022-12-20T13:57:52.628Z,129.13
2022-12-20T13:59:03.176Z,118.28
2022-12-20T14:00:13.778Z,100.68
2022-12-20T14:01:24.575Z,86.80
2022-12-20T14:02:33.032Z,69.63
2022-12-20T14:03:42.153Z,63.53
2022-12-20T14:04:49.922Z,63.70
2022-12-20T14:05:58.378Z,62.20
2022-12-20T14:07:02.283Z,60.80
2022-12-20T14:08:21.099Z,59.10
2022-12-20T14:09:37.739Z,60.40
2022-12-20T14:10:40.146Z,56.03
2022-12-20T14:11:48.549Z,65.88
2022-12-20T14:12:54.649Z,55.05
2022-12-20T14:13:56.969Z,57.72
2022-12-20T14:14:59.589Z,62.80
2022-12-20T14:16:15.802Z,60.60
2022-12-20T14:17:33.554Z,62.08
2022-12-20T14:18:35.973Z,58.97
2022-12-20T14:19:38.348Z,58.97
2022-12-20T14:20:40.808Z,61.70
2022-12-20T14:21:45.887Z,60.40
2022-12-20T14:22:57.916Z,56.30
2022-12-20T14:24:04.206Z,60.67
2022-12-20T14:25:07.843Z,51.13
2022-12-20T14:26:13.664Z,55.72
2022-12-20T14:27:16.008Z,54.03
2022-12-20T14:28:40.459Z,49.47
2022-12-20T14:29:45.489Z,55.38
2022-12-20T14:30:48.023Z,47.83
2022-12-20T14:31:51.017Z,46.92
2022-12-20T14:32:55.785Z,48.50
2022-12-20T14:34:13.402Z,49.63
2022-12-20T14:35:21.947Z,51.55
2022-12-20T14:36:24.513Z,48.28
2022-12-20T14:37:38.360Z,49.25
2022-12-20T14:38:42.204Z,45.30
2022-12-20T14:40:16.563Z,45.45
2022-12-20T14:41:39.291Z,51.55
2022-12-20T14:42:41.838Z,46.75
2022-12-20T14:43:44.490Z,43.25
2022-12-20T14:44:47.484Z,46.05